Time;durP1;ratioP1;P1;durP2;ratioP2;P2;SDS_P1;SDS_P2;PMS_P1;PMS_P2;Temp;Humidity;BMP_temperature;BMP_pressure;BME280_temperature;BME280_humidity;BME280_pressure;Samples;Min_cycle;Max_cycle;Signal;HPM_P1;HPM_P2
2024/02/23 00:02:17;;;;;;;0.40;0.40;;;8.60;99.90;;;;;;5020421;28;20029;-38
2024/02/23 00:04:42;;;;;;;0.50;0.50;;;8.60;99.90;;;;;;5041604;28;20450;-40
2024/02/23 00:07:08;;;;;;;0.50;0.50;;;8.50;99.90;;;;;;5051059;28;20033;-40
2024/02/23 00:09:34;;;;;;;0.45;0.45;;;8.40;99.90;;;;;;5017160;28;20077;-40
2024/02/23 00:12:00;;;;;;;0.50;0.50;;;8.40;99.90;;;;;;5043451;28;20486;-41
2024/02/23 00:14:26;;;;;;;0.50;0.50;;;8.30;99.90;;;;;;5044344;28;20039;-37
2024/02/23 00:16:51;;;;;;;0.50;0.50;;;8.30;99.90;;;;;;5048859;28;20036;-39
2024/02/23 00:19:19;;;;;;;0.30;0.30;;;8.20;99.90;;;;;;5039814;28;20037;-38
2024/02/23 00:21:49;;;;;;;0.30;0.30;;;8.10;99.90;;;;;;5040408;28;20021;-40
2024/02/23 00:24:16;;;;;;;0.57;0.50;;;8.10;99.90;;;;;;5038554;28;20422;-40
2024/02/23 00:26:42;;;;;;;0.40;0.40;;;8.00;99.90;;;;;;5024437;28;20102;-39
2024/02/23 00:29:09;;;;;;;0.38;0.38;;;8.00;99.90;;;;;;5022709;28;20530;-35
2024/02/23 00:31:37;;;;;;;0.40;0.40;;;8.00;99.90;;;;;;5023104;28;20077;-40
2024/02/23 00:34:03;;;;;;;0.47;0.47;;;8.00;99.90;;;;;;5010415;28;20135;-39
2024/02/23 00:36:29;;;;;;;0.35;0.35;;;7.90;99.90;;;;;;5025057;28;20029;-40
2024/02/23 00:38:54;;;;;;;0.43;0.43;;;7.90;99.90;;;;;;5026579;28;20065;-40
2024/02/23 00:41:20;;;;;;;0.73;0.47;;;7.80;99.90;;;;;;5023544;28;20029;-37
2024/02/23 00:43:47;;;;;;;0.30;0.30;;;7.80;99.90;;;;;;5023159;28;20516;-40
2024/02/23 00:46:14;;;;;;;0.40;0.40;;;7.80;99.90;;;;;;5026864;28;20099;-39
2024/02/23 00:48:40;;;;;;;0.60;0.50;;;7.70;99.90;;;;;;5020109;28;20033;-40
2024/02/23 00:51:07;;;;;;;0.40;0.40;;;7.70;99.90;;;;;;5024066;28;20037;-34
2024/02/23 00:53:33;;;;;;;0.30;0.30;;;7.70;99.90;;;;;;5022602;28;20087;-32
2024/02/23 00:55:59;;;;;;;0.95;0.50;;;7.70;99.90;;;;;;5025311;28;20037;-31
2024/02/23 00:58:24;;;;;;;0.47;0.47;;;7.70;99.90;;;;;;5021506;28;20025;-35
2024/02/23 01:00:50;;;;;;;0.50;0.50;;;7.70;99.90;;;;;;5022001;28;20475;-35
2024/02/23 01:03:16;;;;;;;0.43;0.43;;;7.70;99.90;;;;;;5025615;28;20018;-32
2024/02/23 01:05:42;;;;;;;0.43;0.43;;;7.60;99.90;;;;;;5021925;28;20061;-34
2024/02/23 01:08:08;;;;;;;0.43;0.43;;;7.60;99.90;;;;;;5020446;28;20030;-32
2024/02/23 01:10:34;;;;;;;0.50;0.50;;;7.60;99.90;;;;;;5021055;28;20022;-33
2024/02/23 01:13:00;;;;;;;0.45;0.45;;;7.50;99.90;;;;;;5023671;28;20410;-32
2024/02/23 01:15:26;;;;;;;0.52;0.52;;;7.50;99.90;;;;;;5024103;28;20151;-32
2024/02/23 01:17:51;;;;;;;0.47;0.47;;;7.60;99.90;;;;;;5023928;28;20036;-33
2024/02/23 01:20:17;;;;;;;0.50;0.50;;;7.50;99.90;;;;;;5018170;28;20160;-36
2024/02/23 01:22:43;;;;;;;0.68;0.68;;;7.50;99.90;;;;;;5020559;28;20394;-33
2024/02/23 01:25:08;;;;;;;0.50;0.50;;;7.50;99.90;;;;;;5016554;28;20047;-32
2024/02/23 01:27:34;;;;;;;0.63;0.50;;;7.50;99.90;;;;;;5024208;28;20037;-32
2024/02/23 01:30:00;;;;;;;0.40;0.40;;;7.40;99.90;;;;;;5018798;28;20531;-32
2024/02/23 01:32:25;;;;;;;0.40;0.40;;;7.40;99.90;;;;;;5020339;28;20041;-32
2024/02/23 01:34:51;;;;;;;0.30;0.30;;;7.40;99.90;;;;;;5028396;28;20071;-34
2024/02/23 01:37:17;;;;;;;0.40;0.40;;;7.30;99.90;;;;;;5025638;28;20055;-34
2024/02/23 01:39:42;;;;;;;0.52;0.47;;;7.30;99.90;;;;;;5019493;28;20038;-33
2024/02/23 01:42:08;;;;;;;0.45;0.40;;;7.30;99.90;;;;;;5023285;28;20391;-34
2024/02/23 01:44:34;;;;;;;0.47;0.47;;;7.30;99.90;;;;;;5024477;28;20022;-34
2024/02/23 01:46:59;;;;;;;0.43;0.43;;;7.30;99.90;;;;;;5024914;28;20042;-31
2024/02/23 01:49:29;;;;;;;0.47;0.47;;;7.30;99.90;;;;;;5018028;28;20029;-32
2024/02/23 01:51:58;;;;;;;0.43;0.40;;;7.30;99.90;;;;;;5017879;28;20032;-35
2024/02/23 01:54:24;;;;;;;0.75;0.60;;;7.20;99.90;;;;;;5023838;28;20026;-33
2024/02/23 01:56:51;;;;;;;0.68;0.68;;;7.20;99.90;;;;;;5019718;28;20052;-33
2024/02/23 01:59:17;;;;;;;0.50;0.50;;;7.20;99.90;;;;;;5024264;28;20029;-34
2024/02/23 02:01:45;;;;;;;0.93;0.50;;;7.20;99.90;;;;;;5023307;28;20045;-34
2024/02/23 02:04:11;;;;;;;;;;;7.20;99.90;;;;;;5025683;28;20029;-32
2024/02/23 02:06:37;;;;;;;0.30;0.30;;;6.70;99.90;;;;;;5026430;28;19920;-38
2024/02/23 02:09:02;;;;;;;0.30;0.30;;;6.20;99.90;;;;;;5026993;28;20029;-37
2024/02/23 02:11:28;;;;;;;0.40;0.40;;;5.80;99.90;;;;;;5021854;28;20072;-32
2024/02/23 02:13:53;;;;;;;0.40;0.40;;;5.50;99.90;;;;;;5030196;28;20076;-36
2024/02/23 02:16:19;;;;;;;0.50;0.50;;;5.40;99.90;;;;;;5024578;28;20041;-34
2024/02/23 02:18:45;;;;;;;0.30;0.30;;;5.30;99.90;;;;;;5030456;28;20112;-32
2024/02/23 02:21:11;;;;;;;0.40;0.40;;;5.20;99.90;;;;;;5012658;28;20038;-36
2024/02/23 02:23:37;;;;;;;0.40;0.40;;;5.20;99.90;;;;;;5021061;28;20028;-35
2024/02/23 02:26:03;;;;;;;0.50;0.50;;;5.10;99.90;;;;;;5025808;28;20132;-33
2024/02/23 02:28:29;;;;;;;0.50;0.50;;;5.00;99.90;;;;;;5021991;28;20029;-32
2024/02/23 02:30:55;;;;;;;0.40;0.40;;;5.00;99.90;;;;;;5028271;28;20030;-32
2024/02/23 02:33:22;;;;;;;0.40;0.40;;;4.90;99.90;;;;;;5026000;28;20056;-34
2024/02/23 02:35:49;;;;;;;0.50;0.50;;;4.90;99.90;;;;;;5008680;28;20565;-34
2024/02/23 02:38:14;;;;;;;0.50;0.50;;;4.80;99.90;;;;;;5023721;28;20033;-37
2024/02/23 02:40:40;;;;;;;0.40;0.40;;;4.80;99.90;;;;;;5024748;28;20048;-33
2024/02/23 02:43:06;;;;;;;0.40;0.40;;;4.80;99.90;;;;;;5032580;28;20386;-32
2024/02/23 02:45:32;;;;;;;0.50;0.50;;;4.80;99.90;;;;;;5023907;28;20048;-32
2024/02/23 02:48:01;;;;;;;0.50;0.50;;;4.80;99.90;;;;;;5025173;28;20380;-33
2024/02/23 02:50:26;;;;;;;0.63;0.63;;;4.80;99.90;;;;;;5029546;28;20042;-36
2024/02/23 02:52:52;;;;;;;0.40;0.40;;;4.80;99.90;;;;;;5024220;28;20435;-32
2024/02/23 02:55:18;;;;;;;0.60;0.60;;;4.90;99.90;;;;;;5027286;28;20035;-36
2024/02/23 02:57:44;;;;;;;0.43;0.43;;;4.80;99.90;;;;;;5025253;28;20389;-36
2024/02/23 03:00:11;;;;;;;0.40;0.40;;;4.80;99.90;;;;;;5008297;28;20030;-33
2024/02/23 03:02:37;;;;;;;0.40;0.40;;;4.80;99.90;;;;;;5025108;28;20982;-33
2024/02/23 03:05:03;;;;;;;0.40;0.40;;;4.70;99.90;;;;;;5024769;28;20029;-34
2024/02/23 03:07:29;;;;;;;0.40;0.40;;;4.80;99.90;;;;;;5017500;28;20644;-34
2024/02/23 03:09:54;;;;;;;0.40;0.40;;;4.80;99.90;;;;;;5025053;28;20049;-34
2024/02/23 03:12:20;;;;;;;0.55;0.55;;;4.80;99.90;;;;;;5024338;28;20040;-34
2024/02/23 03:14:46;;;;;;;0.40;0.40;;;4.90;99.90;;;;;;5024313;28;20502;-33
2024/02/23 03:17:11;;;;;;;0.40;0.40;;;4.90;99.90;;;;;;5011665;28;20045;-34
2024/02/23 03:19:37;;;;;;;0.75;0.70;;;5.00;99.90;;;;;;5009761;28;20056;-33
2024/02/23 03:22:03;;;;;;;0.77;0.60;;;5.00;99.90;;;;;;5029876;28;20037;-34
2024/02/23 03:24:29;;;;;;;0.40;0.40;;;5.00;99.90;;;;;;5025109;28;20038;-35
2024/02/23 03:26:55;;;;;;;0.50;0.50;;;5.00;99.90;;;;;;5023868;28;20083;-33
2024/02/23 03:29:24;;;;;;;2.80;1.27;;;5.10;99.90;;;;;;5025695;28;20033;-35
2024/02/23 03:31:51;;;;;;;3.50;0.60;;;5.10;99.90;;;;;;5027348;28;20560;-36
2024/02/23 03:34:17;;;;;;;0.47;0.47;;;5.00;99.90;;;;;;5027163;28;20025;-33
2024/02/23 03:36:43;;;;;;;0.40;0.40;;;5.00;99.90;;;;;;5023320;28;20017;-32
2024/02/23 03:39:08;;;;;;;0.40;0.40;;;5.00;99.90;;;;;;5022512;28;20510;-32
2024/02/23 03:41:34;;;;;;;0.40;0.40;;;5.00;99.90;;;;;;5026141;28;20030;-33
2024/02/23 03:43:59;;;;;;;0.50;0.50;;;5.00;99.90;;;;;;5024083;28;20079;-35
2024/02/23 03:46:25;;;;;;;0.60;0.60;;;5.00;99.90;;;;;;5027456;28;20067;-33
2024/02/23 03:48:51;;;;;;;0.45;0.45;;;5.00;99.90;;;;;;5027082;28;20033;-35
2024/02/23 03:51:17;;;;;;;0.50;0.50;;;5.10;99.90;;;;;;5016563;28;20033;-36
2024/02/23 03:53:43;;;;;;;0.60;0.60;;;5.10;99.90;;;;;;5028397;28;20022;-33
2024/02/23 03:56:09;;;;;;;0.40;0.40;;;5.10;99.90;;;;;;5024626;28;20125;-33
2024/02/23 03:58:34;;;;;;;0.40;0.40;;;5.20;99.90;;;;;;5021510;28;20121;-32
2024/02/23 04:01:00;;;;;;;0.95;0.95;;;5.20;99.90;;;;;;5025519;28;20133;-33
2024/02/23 04:03:25;;;;;;;0.50;0.50;;;5.20;99.90;;;;;;5005031;28;20529;-34
2024/02/23 04:05:51;;;;;;;0.50;0.50;;;5.20;99.90;;;;;;5029798;28;20029;-36
2024/02/23 04:08:17;;;;;;;0.40;0.40;;;5.20;99.90;;;;;;5016164;28;20379;-37
2024/02/23 04:10:42;;;;;;;0.70;0.70;;;5.20;99.90;;;;;;5011406;28;20360;-33
2024/02/23 04:13:08;;;;;;;0.50;0.50;;;5.20;99.90;;;;;;5002129;28;20041;-33
2024/02/23 04:15:34;;;;;;;0.60;0.60;;;5.10;99.90;;;;;;5020443;28;20025;-32
2024/02/23 04:18:00;;;;;;;0.70;0.70;;;5.20;99.90;;;;;;5023732;28;20096;-33
2024/02/23 04:20:25;;;;;;;1.85;0.60;;;5.10;99.90;;;;;;5021569;28;20077;-33
2024/02/23 04:22:51;;;;;;;1.60;0.70;;;5.10;99.90;;;;;;5024805;28;20057;-35
2024/02/23 04:25:16;;;;;;;0.50;0.50;;;5.10;99.90;;;;;;5024609;28;20475;-39
2024/02/23 04:27:43;;;;;;;0.85;0.70;;;5.20;99.90;;;;;;5018640;28;20033;-36
2024/02/23 04:30:10;;;;;;;0.57;0.57;;;5.10;99.90;;;;;;5024461;28;20427;-32
2024/02/23 04:32:35;;;;;;;0.40;0.40;;;5.20;99.90;;;;;;5005625;28;20388;-33
2024/02/23 04:35:01;;;;;;;0.60;0.60;;;5.20;99.90;;;;;;5023960;28;20031;-35
2024/02/23 04:37:27;;;;;;;2.60;0.70;;;5.20;99.90;;;;;;5005148;28;20111;-33
2024/02/23 04:39:52;;;;;;;0.60;0.60;;;5.10;99.90;;;;;;5022771;28;20033;-33
2024/02/23 04:42:18;;;;;;;0.40;0.40;;;5.10;99.90;;;;;;5023035;28;20064;-35
2024/02/23 04:44:44;;;;;;;1.00;0.80;;;5.00;99.90;;;;;;5025601;28;20032;-33
2024/02/23 04:47:09;;;;;;;0.45;0.45;;;5.00;99.90;;;;;;5025541;28;20104;-33
2024/02/23 04:49:35;;;;;;;0.50;0.50;;;5.00;99.90;;;;;;5020295;28;20034;-32
2024/02/23 04:52:01;;;;;;;0.63;0.50;;;5.00;99.90;;;;;;5027483;28;20025;-33
2024/02/23 04:54:26;;;;;;;0.50;0.50;;;5.00;99.90;;;;;;5015754;28;20025;-33
2024/02/23 04:56:52;;;;;;;0.50;0.50;;;5.10;99.90;;;;;;5023310;28;20052;-33
2024/02/23 04:59:17;;;;;;;1.00;0.40;;;5.10;99.90;;;;;;5023673;28;20054;-38
2024/02/23 05:01:43;;;;;;;0.50;0.50;;;5.00;99.90;;;;;;5032475;28;20493;-37
2024/02/23 05:04:09;;;;;;;0.50;0.50;;;5.00;99.90;;;;;;5003635;28;20037;-32
2024/02/23 05:06:35;;;;;;;1.45;0.60;;;5.00;99.90;;;;;;5028767;28;20076;-32
2024/02/23 05:09:01;;;;;;;1.30;0.60;;;5.00;99.90;;;;;;5020486;28;20368;-32
2024/02/23 05:11:27;;;;;;;1.02;0.50;;;5.00;99.90;;;;;;5020456;28;20026;-33
2024/02/23 05:13:53;;;;;;;0.40;0.40;;;5.00;99.90;;;;;;5025147;28;20083;-36
2024/02/23 05:16:18;;;;;;;1.10;0.60;;;5.10;99.90;;;;;;5019210;28;20053;-35
2024/02/23 05:18:46;;;;;;;0.55;0.55;;;5.10;99.90;;;;;;5021161;28;20041;-33
2024/02/23 05:21:12;;;;;;;0.50;0.50;;;5.10;99.90;;;;;;5021814;28;20419;-33
2024/02/23 05:23:38;;;;;;;0.80;0.50;;;5.10;99.90;;;;;;5022894;28;20032;-34
2024/02/23 05:26:03;;;;;;;0.50;0.50;;;5.00;99.90;;;;;;5027433;28;20569;-39
2024/02/23 05:28:29;;;;;;;1.30;1.30;;;5.00;99.90;;;;;;5019851;28;20029;-32
2024/02/23 05:30:56;;;;;;;0.70;0.70;;;5.00;99.90;;;;;;5021580;28;20040;-40
2024/02/23 05:33:22;;;;;;;0.80;0.80;;;5.00;99.90;;;;;;5024787;28;20116;-41
2024/02/23 05:35:48;;;;;;;0.80;0.80;;;5.00;99.90;;;;;;5027060;28;20053;-40
2024/02/23 05:38:15;;;;;;;0.88;0.80;;;5.00;99.90;;;;;;5022631;28;20482;-40
2024/02/23 05:40:41;;;;;;;1.35;0.60;;;5.00;99.90;;;;;;5028569;28;20029;-37
2024/02/23 05:43:07;;;;;;;0.70;0.70;;;5.00;99.90;;;;;;5029003;28;20108;-41
2024/02/23 05:45:33;;;;;;;0.95;0.90;;;5.00;99.90;;;;;;5024842;28;20642;-39
2024/02/23 05:47:59;;;;;;;1.42;1.33;;;5.00;99.90;;;;;;5027587;28;20029;-41
2024/02/23 05:50:28;;;;;;;2.17;0.90;;;5.00;99.90;;;;;;5027568;28;20035;-42
2024/02/23 05:52:54;;;;;;;1.20;0.90;;;5.00;99.90;;;;;;5026550;28;20025;-39
2024/02/23 05:55:20;;;;;;;0.60;0.60;;;4.90;99.90;;;;;;5023949;28;20503;-36
2024/02/23 05:57:50;;;;;;;0.90;0.80;;;4.90;99.90;;;;;;5034880;28;20034;-40
2024/02/23 06:00:18;;;;;;;0.70;0.70;;;4.90;99.90;;;;;;5041215;28;20533;-39
2024/02/23 06:02:45;;;;;;;0.63;0.63;;;4.90;99.90;;;;;;5007683;28;20026;-42
2024/02/23 06:05:13;;;;;;;0.70;0.70;;;4.90;99.90;;;;;;5031810;28;20057;-41
2024/02/23 06:07:38;;;;;;;0.80;0.80;;;5.00;99.90;;;;;;5024050;28;20029;-42
2024/02/23 06:10:05;;;;;;;0.63;0.63;;;4.90;99.90;;;;;;5040500;28;20056;-40
2024/02/23 06:12:31;;;;;;;0.75;0.75;;;5.00;99.90;;;;;;5028747;28;20032;-41
2024/02/23 06:14:58;;;;;;;0.70;0.70;;;4.90;99.90;;;;;;5025447;28;20025;-37
2024/02/23 06:17:24;;;;;;;0.70;0.70;;;5.00;99.90;;;;;;5027360;28;20038;-37
2024/02/23 06:19:52;;;;;;;2.40;0.70;;;5.00;99.90;;;;;;5026397;28;20105;-39
2024/02/23 06:22:22;;;;;;;0.60;0.60;;;4.90;99.90;;;;;;5029047;28;20479;-39
2024/02/23 06:24:48;;;;;;;0.73;0.70;;;4.70;99.90;;;;;;5024013;28;20117;-41
2024/02/23 06:27:14;;;;;;;0.80;0.80;;;4.60;99.90;;;;;;5012234;28;20025;-41
2024/02/23 06:29:40;;;;;;;0.60;0.60;;;4.60;99.90;;;;;;5007624;28;20548;-40
2024/02/23 06:32:06;;;;;;;3.80;0.80;;;4.70;99.90;;;;;;5025522;28;20073;-36
2024/02/23 06:34:31;;;;;;;0.88;0.80;;;4.70;99.90;;;;;;5026452;28;20083;-41
2024/02/23 06:36:57;;;;;;;1.17;1.08;;;4.70;99.90;;;;;;5023087;28;20730;-43
2024/02/23 06:39:23;;;;;;;1.88;1.70;;;4.70;99.90;;;;;;5008029;28;20118;-39
2024/02/23 06:41:48;;;;;;;1.90;1.80;;;4.80;99.90;;;;;;5022867;28;20029;-37
2024/02/23 06:44:14;;;;;;;1.38;1.30;;;4.90;99.90;;;;;;5027150;28;20817;-32
2024/02/23 06:46:40;;;;;;;0.70;0.70;;;4.90;99.90;;;;;;5024919;28;20462;-38
2024/02/23 06:49:06;;;;;;;0.85;0.85;;;4.90;99.90;;;;;;5026751;28;20034;-32
2024/02/23 06:51:32;;;;;;;0.73;0.68;;;5.00;99.90;;;;;;5023705;28;20030;-33
2024/02/23 06:53:57;;;;;;;1.10;0.70;;;5.00;99.90;;;;;;5021262;28;20044;-31
2024/02/23 06:56:23;;;;;;;0.70;0.70;;;5.00;99.90;;;;;;5026667;28;20491;-32
2024/02/23 06:58:49;;;;;;;0.88;0.88;;;5.00;99.90;;;;;;5029384;28;21485;-36
2024/02/23 07:01:15;;;;;;;1.00;1.00;;;5.10;99.90;;;;;;5024559;28;20026;-31
2024/02/23 07:03:44;;;;;;;0.80;0.80;;;5.10;99.90;;;;;;5012238;28;20042;-31
2024/02/23 07:06:10;;;;;;;1.67;1.00;;;5.00;99.90;;;;;;5026002;28;20048;-34
2024/02/23 07:08:36;;;;;;;0.63;0.63;;;5.00;99.90;;;;;;5028807;28;21014;-38
2024/02/23 07:11:02;;;;;;;0.70;0.70;;;5.10;99.90;;;;;;5024478;28;20030;-32
2024/02/23 07:13:28;;;;;;;0.68;0.65;;;5.10;99.90;;;;;;5026115;28;20029;-36
2024/02/23 07:15:55;;;;;;;0.70;0.70;;;5.10;99.90;;;;;;5027477;28;20518;-32
2024/02/23 07:18:21;;;;;;;0.80;0.80;;;5.10;99.90;;;;;;5026997;28;20154;-33
2024/02/23 07:20:47;;;;;;;0.70;0.70;;;5.10;99.90;;;;;;5024603;28;20087;-32
2024/02/23 07:23:12;;;;;;;0.70;0.70;;;5.10;99.90;;;;;;5026215;28;20037;-34
2024/02/23 07:25:38;;;;;;;0.70;0.70;;;5.10;99.90;;;;;;5026841;28;20134;-33
2024/02/23 07:28:04;;;;;;;0.80;0.80;;;5.10;99.90;;;;;;5026615;28;20026;-32
2024/02/23 07:30:30;;;;;;;0.88;0.85;;;5.10;99.90;;;;;;5029314;28;20025;-31
2024/02/23 07:32:55;;;;;;;1.77;1.00;;;5.10;99.90;;;;;;5029121;28;20026;-31
2024/02/23 07:35:21;;;;;;;0.85;0.85;;;5.10;99.90;;;;;;5030568;28;20441;-33
2024/02/23 07:37:46;;;;;;;0.90;0.90;;;5.20;99.90;;;;;;5028347;28;20112;-36
2024/02/23 07:40:12;;;;;;;1.10;1.10;;;5.20;99.90;;;;;;5026240;28;20238;-31
2024/02/23 07:42:38;;;;;;;2.75;1.58;;;5.20;99.90;;;;;;5025065;28;20034;-32
2024/02/23 07:45:04;;;;;;;6.07;2.03;;;5.20;99.90;;;;;;5027027;28;20029;-31
2024/02/23 07:47:33;;;;;;;4.20;1.50;;;5.20;99.90;;;;;;5022762;28;20056;-33
2024/02/23 07:49:59;;;;;;;2.55;1.05;;;5.20;99.90;;;;;;5030643;28;20446;-31
2024/02/23 07:52:25;;;;;;;1.33;1.15;;;5.20;99.90;;;;;;5029795;28;20033;-41
2024/02/23 07:54:54;;;;;;;1.20;1.10;;;5.20;99.90;;;;;;5005657;28;20555;-37
2024/02/23 07:57:20;;;;;;;1.25;1.10;;;5.20;99.90;;;;;;5023174;28;20025;-40
2024/02/23 07:59:46;;;;;;;1.70;1.33;;;5.20;99.90;;;;;;5017864;28;20030;-41
2024/02/23 08:02:11;;;;;;;0.98;0.98;;;5.20;99.90;;;;;;5016613;28;20415;-39
2024/02/23 08:04:37;;;;;;;0.85;0.70;;;5.20;99.90;;;;;;5022797;28;20079;-41
2024/02/23 08:07:04;;;;;;;1.13;0.93;;;5.20;99.90;;;;;;5022271;28;20099;-41
2024/02/23 08:09:29;;;;;;;0.80;0.80;;;5.20;99.90;;;;;;5017632;28;20037;-38
2024/02/23 08:11:55;;;;;;;0.73;0.73;;;5.30;99.90;;;;;;5022849;28;20835;-42
2024/02/23 08:14:21;;;;;;;2.35;1.00;;;5.30;99.90;;;;;;5018539;28;20026;-41
2024/02/23 08:16:46;;;;;;;0.88;0.60;;;5.30;99.90;;;;;;5021775;28;20109;-42
2024/02/23 08:19:12;;;;;;;0.95;0.70;;;5.30;99.90;;;;;;5019745;28;20032;-40
2024/02/23 08:21:37;;;;;;;0.68;0.68;;;5.30;99.90;;;;;;5017681;28;20183;-40
2024/02/23 08:24:03;;;;;;;0.85;0.70;;;5.30;99.90;;;;;;5023511;28;20029;-37
2024/02/23 08:26:29;;;;;;;0.68;0.68;;;5.40;99.90;;;;;;5020925;28;20025;-42
2024/02/23 08:28:54;;;;;;;2.13;0.80;;;5.40;99.90;;;;;;5019669;28;20055;-39
2024/02/23 08:31:20;;;;;;;2.58;0.88;;;5.40;99.90;;;;;;5028123;28;20109;-35
2024/02/23 08:33:46;;;;;;;1.17;0.70;;;5.40;99.90;;;;;;5022457;28;20084;-41
2024/02/23 08:36:12;;;;;;;1.13;0.80;;;5.40;99.90;;;;;;5026926;28;20571;-41
2024/02/23 08:38:38;;;;;;;0.70;0.70;;;5.50;99.90;;;;;;5018103;28;20055;-41
2024/02/23 08:41:03;;;;;;;1.05;0.88;;;5.40;99.90;;;;;;5019823;28;20041;-41
2024/02/23 08:43:29;;;;;;;1.55;0.90;;;5.50;99.90;;;;;;5019931;28;20100;-40
2024/02/23 08:45:54;;;;;;;2.88;0.80;;;5.50;99.90;;;;;;5029637;28;20061;-40
2024/02/23 08:48:20;;;;;;;0.88;0.88;;;5.50;99.90;;;;;;5019721;28;20034;-40
2024/02/23 08:50:46;;;;;;;1.20;0.90;;;5.60;99.90;;;;;;5007927;28;20030;-40
2024/02/23 08:53:11;;;;;;;2.10;0.77;;;5.50;99.90;;;;;;5027005;28;20841;-39
2024/02/23 08:55:37;;;;;;;1.30;0.85;;;5.50;99.90;;;;;;5021558;28;20028;-41
2024/02/23 08:58:03;;;;;;;2.13;0.73;;;5.50;99.90;;;;;;5013802;28;20061;-39
2024/02/23 09:00:28;;;;;;;0.70;0.70;;;5.60;99.90;;;;;;5026169;28;20529;-37
2024/02/23 09:02:54;;;;;;;0.93;0.75;;;5.50;99.90;;;;;;5021941;28;20557;-39
2024/02/23 09:05:20;;;;;;;1.23;0.60;;;5.50;99.90;;;;;;5028026;28;20025;-40
2024/02/23 09:07:46;;;;;;;0.60;0.60;;;5.50;99.90;;;;;;5017435;28;20030;-41
2024/02/23 09:10:12;;;;;;;1.13;0.70;;;5.60;99.90;;;;;;5026457;28;20112;-41
2024/02/23 09:12:38;;;;;;;2.05;0.73;;;5.60;99.90;;;;;;5025439;28;20017;-40
2024/02/23 09:15:05;;;;;;;0.75;0.65;;;5.60;99.90;;;;;;5022961;28;20117;-40
2024/02/23 09:17:30;;;;;;;4.55;0.90;;;5.60;99.90;;;;;;5022287;28;20038;-39
2024/02/23 09:19:56;;;;;;;1.15;0.90;;;5.60;99.90;;;;;;5022676;28;20037;-40
2024/02/23 09:22:22;;;;;;;0.73;0.60;;;5.60;99.90;;;;;;5029027;28;20021;-40
2024/02/23 09:24:48;;;;;;;0.80;0.80;;;5.60;99.90;;;;;;5020584;28;20164;-38
2024/02/23 09:27:14;;;;;;;0.57;0.50;;;5.60;99.90;;;;;;5003823;28;20073;-39
2024/02/23 09:29:42;;;;;;;0.80;0.80;;;5.60;99.90;;;;;;5018596;28;20045;-40
2024/02/23 09:32:07;;;;;;;0.82;0.82;;;5.60;99.90;;;;;;5019069;28;20134;-39
2024/02/23 09:34:33;;;;;;;0.52;0.52;;;5.70;99.90;;;;;;5017416;28;20448;-41
2024/02/23 09:36:59;;;;;;;2.75;1.75;;;5.70;99.90;;;;;;5024395;28;20665;-37
2024/02/23 09:39:26;;;;;;;1.05;0.82;;;5.60;99.90;;;;;;5023274;28;20065;-42
2024/02/23 09:41:53;;;;;;;2.42;0.80;;;5.70;99.90;;;;;;5020916;28;20037;-38
2024/02/23 09:44:21;;;;;;;0.95;0.85;;;5.70;99.90;;;;;;5020839;28;20025;-37
2024/02/23 09:46:47;;;;;;;3.60;1.70;;;5.70;99.90;;;;;;5026380;28;20384;-39
2024/02/23 09:49:16;;;;;;;1.45;1.23;;;5.80;99.90;;;;;;5023801;28;20447;-42
2024/02/23 09:51:43;;;;;;;1.65;1.52;;;5.80;99.90;;;;;;5031520;28;20087;-40
2024/02/23 09:54:09;;;;;;;0.90;0.90;;;5.80;99.90;;;;;;5017477;28;20034;-42
2024/02/23 09:56:37;;;;;;;1.95;1.05;;;5.80;99.90;;;;;;5023116;28;20084;-40
2024/02/23 09:59:04;;;;;;;6.50;1.10;;;5.70;99.90;;;;;;5022951;28;20356;-42
2024/02/23 10:01:32;;;;;;;0.90;0.90;;;5.80;99.90;;;;;;5020455;28;20038;-39
2024/02/23 10:03:59;;;;;;;0.95;0.80;;;5.80;99.90;;;;;;5026664;28;20083;-41
2024/02/23 10:06:25;;;;;;;2.58;1.02;;;5.80;99.90;;;;;;5020843;28;20122;-40
2024/02/23 10:08:51;;;;;;;0.70;0.70;;;5.80;99.90;;;;;;5021995;28;20163;-37
2024/02/23 10:11:24;;;;;;;0.90;0.77;;;5.70;99.90;;;;;;5019146;28;20506;-36
2024/02/23 10:13:51;;;;;;;2.55;1.00;;;5.70;99.90;;;;;;5027294;28;20071;-36
2024/02/23 10:16:20;;;;;;;0.65;0.65;;;5.70;99.90;;;;;;5023949;28;20044;-38
2024/02/23 10:18:48;;;;;;;1.50;0.82;;;5.70;99.90;;;;;;5019166;28;20033;-34
2024/02/23 10:21:15;;;;;;;0.77;0.70;;;5.80;99.90;;;;;;5022927;28;20792;-32
2024/02/23 10:23:41;;;;;;;2.38;1.10;;;5.90;99.90;;;;;;5023768;28;20041;-32
2024/02/23 10:26:07;;;;;;;0.60;0.60;;;5.90;99.90;;;;;;5052770;28;20509;-34
2024/02/23 10:28:36;;;;;;;0.50;0.50;;;5.90;99.90;;;;;;5043145;28;20106;-33
2024/02/23 10:31:02;;;;;;;2.30;1.48;;;5.90;99.90;;;;;;5031721;28;20041;-33
2024/02/23 10:33:28;;;;;;;0.68;0.68;;;5.90;99.90;;;;;;5043219;28;20509;-32
2024/02/23 10:35:59;;;;;;;0.77;0.70;;;5.90;99.90;;;;;;5044797;28;20029;-32
2024/02/23 10:38:27;;;;;;;0.85;0.85;;;5.90;99.90;;;;;;5044981;28;20068;-31
2024/02/23 10:40:56;;;;;;;3.22;1.17;;;5.90;99.90;;;;;;5040646;28;20472;-34
2024/02/23 10:43:31;;;;;;;1.70;1.00;;;5.90;99.90;;;;;;5046367;28;20498;-32
2024/02/23 10:45:59;;;;;;;1.10;1.08;;;5.90;99.90;;;;;;5043572;28;20028;-31
2024/02/23 10:48:27;;;;;;;1.02;1.00;;;6.00;99.90;;;;;;5048544;28;20478;-31
2024/02/23 10:50:53;;;;;;;2.08;1.13;;;5.90;99.90;;;;;;5042590;28;20111;-35
2024/02/23 10:53:19;;;;;;;1.13;0.95;;;5.90;99.90;;;;;;5048866;28;20506;-34
2024/02/23 10:55:46;;;;;;;1.63;0.90;;;5.90;99.90;;;;;;5039209;28;20032;-31
2024/02/23 10:58:13;;;;;;;0.60;0.60;;;5.90;99.90;;;;;;5045195;28;20506;-34
2024/02/23 11:00:39;;;;;;;0.70;0.70;;;5.90;99.90;;;;;;5050282;28;20028;-31
2024/02/23 11:03:06;;;;;;;0.95;0.50;;;5.90;99.90;;;;;;5047198;28;20556;-31
2024/02/23 11:05:33;;;;;;;0.87;0.70;;;5.90;99.90;;;;;;5020864;28;20031;-31
2024/02/23 11:07:59;;;;;;;1.77;1.63;;;6.00;99.90;;;;;;5045256;28;20033;-31
2024/02/23 11:10:28;;;;;;;0.50;0.50;;;6.00;99.90;;;;;;5042996;28;20032;-34
2024/02/23 11:13:00;;;;;;;0.70;0.70;;;6.00;99.90;;;;;;5048801;28;20451;-33
2024/02/23 11:15:30;;;;;;;7.55;1.63;;;6.00;99.90;;;;;;5047826;28;20088;-33
2024/02/23 11:17:56;;;;;;;1.60;0.90;;;6.00;99.90;;;;;;5026786;28;20091;-31
2024/02/23 11:20:26;;;;;;;2.72;0.90;;;6.00;99.90;;;;;;5046712;28;20028;-35
2024/02/23 11:22:55;;;;;;;1.73;0.95;;;6.10;99.90;;;;;;5031019;28;20079;-32
2024/02/23 11:25:26;;;;;;;1.85;0.88;;;6.00;99.90;;;;;;5033556;28;20776;-33
2024/02/23 11:27:55;;;;;;;4.65;1.30;;;6.00;99.90;;;;;;5026517;28;20065;-32
2024/02/23 11:30:20;;;;;;;2.28;1.10;;;6.00;99.90;;;;;;5002908;28;20033;-32
2024/02/23 11:32:48;;;;;;;3.45;0.80;;;6.00;99.90;;;;;;5025664;28;20087;-32
2024/02/23 11:35:21;;;;;;;2.45;1.10;;;6.10;99.90;;;;;;5021760;28;20124;-33
2024/02/23 11:38:01;;;;;;;2.10;0.82;;;6.00;99.90;;;;;;5026765;28;20041;-32
2024/02/23 11:40:30;;;;;;;1.45;0.70;;;6.10;99.90;;;;;;5016546;28;20044;-35
2024/02/23 11:42:56;;;;;;;1.15;0.65;;;6.10;99.90;;;;;;5029236;28;20049;-35
2024/02/23 11:45:22;;;;;;;2.35;0.70;;;6.10;99.90;;;;;;5024593;28;20115;-32
2024/02/23 11:47:48;;;;;;;3.38;1.20;;;6.20;99.90;;;;;;5028641;28;20412;-33
2024/02/23 11:50:15;;;;;;;0.65;0.50;;;6.20;99.90;;;;;;5020213;28;20124;-32
2024/02/23 11:52:41;;;;;;;2.78;1.20;;;6.20;99.90;;;;;;5027815;28;20037;-32
2024/02/23 11:55:08;;;;;;;1.85;0.80;;;6.20;99.90;;;;;;5018526;28;20060;-32
2024/02/23 11:57:34;;;;;;;0.98;0.73;;;6.20;99.90;;;;;;5023760;28;20041;-32
2024/02/23 12:00:06;;;;;;;1.10;1.00;;;6.30;99.90;;;;;;5021498;28;20041;-34
2024/02/23 12:02:32;;;;;;;2.10;1.05;;;6.40;99.90;;;;;;5011296;28;20033;-34
2024/02/23 12:04:57;;;;;;;1.20;1.10;;;6.40;99.90;;;;;;5022222;28;20033;-32
2024/02/23 12:07:25;;;;;;;1.73;0.85;;;6.40;99.90;;;;;;5027018;28;20403;-36
2024/02/23 12:09:52;;;;;;;3.13;1.00;;;6.40;99.90;;;;;;5025529;28;20497;-31
2024/02/23 12:12:18;;;;;;;2.30;0.68;;;6.40;99.90;;;;;;5024276;28;20044;-34
2024/02/23 12:14:44;;;;;;;1.08;0.88;;;6.40;99.90;;;;;;5026567;28;20029;-33
2024/02/23 12:17:10;;;;;;;1.77;0.82;;;6.40;99.90;;;;;;5028596;28;20036;-32
2024/02/23 12:19:42;;;;;;;1.27;0.75;;;6.40;99.90;;;;;;5022442;28;20396;-35
2024/02/23 12:22:07;;;;;;;0.98;0.80;;;6.50;99.90;;;;;;5018151;28;20034;-32
2024/02/23 12:24:34;;;;;;;0.80;0.80;;;6.50;99.90;;;;;;5026696;28;20068;-31
2024/02/23 12:27:00;;;;;;;0.88;0.80;;;6.40;99.90;;;;;;5022238;28;20028;-31
2024/02/23 12:29:27;;;;;;;1.33;1.00;;;6.40;99.90;;;;;;5023856;28;20037;-32
2024/02/23 12:32:03;;;;;;;2.28;0.80;;;6.50;99.90;;;;;;5020800;28;20407;-40
2024/02/23 12:34:29;;;;;;;1.27;0.90;;;6.40;99.90;;;;;;5022162;28;20661;-39
2024/02/23 12:36:55;;;;;;;2.25;1.00;;;6.50;99.90;;;;;;5021506;28;20064;-37
2024/02/23 12:39:21;;;;;;;1.00;0.80;;;6.50;99.90;;;;;;4999129;28;20526;-40
2024/02/23 12:41:46;;;;;;;0.75;0.75;;;6.50;99.90;;;;;;5018192;28;20025;-41
2024/02/23 12:44:12;;;;;;;0.80;0.75;;;6.50;99.90;;;;;;5021008;28;20034;-40
2024/02/23 12:46:38;;;;;;;0.90;0.90;;;6.60;99.90;;;;;;5021154;28;20064;-41
2024/02/23 12:49:03;;;;;;;1.02;0.55;;;6.60;99.90;;;;;;5023370;28;20034;-42
2024/02/23 12:51:29;;;;;;;0.98;0.90;;;6.60;99.90;;;;;;5026568;28;20091;-42
2024/02/23 12:53:55;;;;;;;1.77;0.80;;;6.50;99.90;;;;;;5026746;28;20459;-39